sensor_id;sensor_type;location;lat;lon;timestamp;pressure;altitude;pressure_sealevel;temperature;humidity
57628;BME280;43451;49.060;10.616;2023-12-20T00:00:59;96672.47;;;4.08;100.00
57628;BME280;43451;49.060;10.616;2023-12-20T00:03:24;96673.91;;;4.22;100.00
57628;BME280;43451;49.060;10.616;2023-12-20T00:05:50;96666.13;;;4.16;100.00
57628;BME280;43451;49.060;10.616;2023-12-20T00:08:16;96660.75;;;4.16;100.00
57628;BME280;43451;49.060;10.616;2023-12-20T00:10:43;96663.69;;;4.11;100.00
57628;BME280;43451;49.060;10.616;2023-12-20T00:13:08;96664.31;;;4.05;100.00
57628;BME280;43451;49.060;10.616;2023-12-20T00:15:34;96652.28;;;3.99;100.00
57628;BME280;43451;49.060;10.616;2023-12-20T00:18:00;96654.97;;;3.99;100.00
57628;BME280;43451;49.060;10.616;2023-12-20T00:20:26;96649.06;;;4.09;100.00
57628;BME280;43451;49.060;10.616;2023-12-20T00:22:53;96650.44;;;4.03;100.00
57628;BME280;43451;49.060;10.616;2023-12-20T00:25:18;96649.16;;;4.12;100.00
57628;BME280;43451;49.060;10.616;2023-12-20T00:27:44;96651.13;;;4.15;100.00
57628;BME280;43451;49.060;10.616;2023-12-20T00:30:10;96649.84;;;4.09;100.00
57628;BME280;43451;49.060;10.616;2023-12-20T00:32:35;96648.00;;;4.13;100.00
57628;BME280;43451;49.060;10.616;2023-12-20T00:35:01;96644.69;;;4.20;100.00
57628;BME280;43451;49.060;10.616;2023-12-20T00:37:27;96640.66;;;4.10;100.00
57628;BME280;43451;49.060;10.616;2023-12-20T00:39:52;96629.47;;;4.08;100.00
57628;BME280;43451;49.060;10.616;2023-12-20T00:42:18;96625.06;;;4.00;100.00
57628;BME280;43451;49.060;10.616;2023-12-20T00:44:44;96622.53;;;4.07;100.00
57628;BME280;43451;49.060;10.616;2023-12-20T00:47:09;96616.38;;;4.07;100.00
57628;BME280;43451;49.060;10.616;2023-12-20T00:49:35;96613.00;;;4.10;100.00
57628;BME280;43451;49.060;10.616;2023-12-20T00:52:01;96623.66;;;4.06;100.00
57628;BME280;43451;49.060;10.616;2023-12-20T00:54:26;96618.63;;;4.05;100.00
57628;BME280;43451;49.060;10.616;2023-12-20T00:56:52;96625.66;;;4.09;100.00
57628;BME280;43451;49.060;10.616;2023-12-20T00:59:17;96621.97;;;4.17;100.00
57628;BME280;43451;49.060;10.616;2023-12-20T01:01:43;96608.34;;;4.26;100.00
57628;BME280;43451;49.060;10.616;2023-12-20T01:04:09;96615.47;;;4.18;100.00
57628;BME280;43451;49.060;10.616;2023-12-20T01:06:35;96619.84;;;4.07;100.00
57628;BME280;43451;49.060;10.616;2023-12-20T01:09:00;96617.41;;;4.02;100.00
57628;BME280;43451;49.060;10.616;2023-12-20T01:11:26;96623.41;;;3.95;100.00
57628;BME280;43451;49.060;10.616;2023-12-20T01:13:51;96612.97;;;3.90;100.00
57628;BME280;43451;49.060;10.616;2023-12-20T01:16:17;96620.03;;;3.99;100.00
57628;BME280;43451;49.060;10.616;2023-12-20T01:18:42;96632.47;;;3.87;100.00
57628;BME280;43451;49.060;10.616;2023-12-20T01:21:08;96631.66;;;3.87;100.00
57628;BME280;43451;49.060;10.616;2023-12-20T01:23:33;96632.53;;;3.91;100.00
57628;BME280;43451;49.060;10.616;2023-12-20T01:25:59;96638.06;;;3.98;100.00
57628;BME280;43451;49.060;10.616;2023-12-20T01:28:28;96628.16;;;4.02;100.00
57628;BME280;43451;49.060;10.616;2023-12-20T01:30:53;96626.34;;;4.06;100.00
57628;BME280;43451;49.060;10.616;2023-12-20T01:33:19;96622.03;;;4.02;100.00
57628;BME280;43451;49.060;10.616;2023-12-20T01:35:45;96627.88;;;3.88;100.00
57628;BME280;43451;49.060;10.616;2023-12-20T01:38:10;96629.25;;;3.82;100.00
57628;BME280;43451;49.060;10.616;2023-12-20T01:40:36;96628.91;;;3.83;100.00
57628;BME280;43451;49.060;10.616;2023-12-20T01:43:10;96617.88;;;3.88;100.00
57628;BME280;43451;49.060;10.616;2023-12-20T01:45:38;96617.88;;;3.88;100.00
57628;BME280;43451;49.060;10.616;2023-12-20T01:48:05;96625.81;;;3.81;100.00
57628;BME280;43451;49.060;10.616;2023-12-20T01:50:31;96636.97;;;3.83;100.00
57628;BME280;43451;49.060;10.616;2023-12-20T01:52:59;96631.41;;;3.92;100.00
57628;BME280;43451;49.060;10.616;2023-12-20T01:55:28;96635.31;;;3.94;100.00
57628;BME280;43451;49.060;10.616;2023-12-20T01:57:55;96623.78;;;3.94;100.00
57628;BME280;43451;49.060;10.616;2023-12-20T02:00:23;96624.13;;;3.92;100.00
57628;BME280;43451;49.060;10.616;2023-12-20T02:02:52;96621.09;;;3.94;100.00
57628;BME280;43451;49.060;10.616;2023-12-20T02:05:18;96630.97;;;3.90;100.00
57628;BME280;43451;49.060;10.616;2023-12-20T02:07:44;96620.41;;;3.97;100.00
57628;BME280;43451;49.060;10.616;2023-12-20T02:10:10;96619.78;;;4.04;100.00
57628;BME280;43451;49.060;10.616;2023-12-20T02:12:35;96622.72;;;3.99;100.00
57628;BME280;43451;49.060;10.616;2023-12-20T02:15:01;96621.84;;;4.10;100.00
57628;BME280;43451;49.060;10.616;2023-12-20T02:17:27;96622.72;;;3.99;100.00
57628;BME280;43451;49.060;10.616;2023-12-20T02:19:53;96618.56;;;4.01;100.00
57628;BME280;43451;49.060;10.616;2023-12-20T02:22:18;96615.09;;;4.01;100.00
57628;BME280;43451;49.060;10.616;2023-12-20T02:24:44;96625.78;;;3.97;100.00
57628;BME280;43451;49.060;10.616;2023-12-20T02:27:09;96630.19;;;3.89;100.00
57628;BME280;43451;49.060;10.616;2023-12-20T02:29:35;96624.03;;;3.89;100.00
57628;BME280;43451;49.060;10.616;2023-12-20T02:32:01;96618.75;;;3.92;100.00
57628;BME280;43451;49.060;10.616;2023-12-20T02:34:28;96618.81;;;3.96;100.00
57628;BME280;43451;49.060;10.616;2023-12-20T02:36:53;96632.88;;;3.89;100.00
57628;BME280;43451;49.060;10.616;2023-12-20T02:39:20;96618.81;;;3.96;100.00
57628;BME280;43451;49.060;10.616;2023-12-20T02:41:46;96629.84;;;3.91;100.00
57628;BME280;43451;49.060;10.616;2023-12-20T02:44:12;96625.38;;;4.14;100.00
57628;BME280;43451;49.060;10.616;2023-12-20T02:46:37;96630.66;;;4.11;100.00
57628;BME280;43451;49.060;10.616;2023-12-20T02:49:03;96636.53;;;3.97;100.00
57628;BME280;43451;49.060;10.616;2023-12-20T02:51:29;96624.72;;;4.02;100.00
57628;BME280;43451;49.060;10.616;2023-12-20T02:53:54;96628.53;;;4.01;100.00
57628;BME280;43451;49.060;10.616;2023-12-20T02:56:20;96622.88;;;4.06;100.00
57628;BME280;43451;49.060;10.616;2023-12-20T02:58:45;96616.91;;;4.12;100.00
57628;BME280;43451;49.060;10.616;2023-12-20T03:01:10;96616.25;;;4.19;100.00
57628;BME280;43451;49.060;10.616;2023-12-20T03:03:36;96614.16;;;4.28;100.00
57628;BME280;43451;49.060;10.616;2023-12-20T03:06:01;96608.13;;;4.35;100.00
57628;BME280;43451;49.060;10.616;2023-12-20T03:08:27;96607.78;;;4.36;100.00
57628;BME280;43451;49.060;10.616;2023-12-20T03:10:52;96604.81;;;4.41;100.00
57628;BME280;43451;49.060;10.616;2023-12-20T03:13:19;96607.19;;;4.27;100.00
57628;BME280;43451;49.060;10.616;2023-12-20T03:15:45;96617.19;;;4.46;100.00
57628;BME280;43451;49.060;10.616;2023-12-20T03:18:11;96608.72;;;4.44;100.00
57628;BME280;43451;49.060;10.616;2023-12-20T03:20:37;96604.31;;;4.36;100.00
57628;BME280;43451;49.060;10.616;2023-12-20T03:23:03;96612.94;;;4.26;100.00
57628;BME280;43451;49.060;10.616;2023-12-20T03:25:28;96608.22;;;4.38;100.00
57628;BME280;43451;49.060;10.616;2023-12-20T03:27:54;96611.41;;;4.44;100.00
57628;BME280;43451;49.060;10.616;2023-12-20T03:30:19;96610.06;;;4.54;100.00
57628;BME280;43451;49.060;10.616;2023-12-20T03:32:46;96609.25;;;4.53;100.00
57628;BME280;43451;49.060;10.616;2023-12-20T03:35:12;96613.78;;;4.49;100.00
57628;BME280;43451;49.060;10.616;2023-12-20T03:37:37;96614.28;;;4.35;100.00
57628;BME280;43451;49.060;10.616;2023-12-20T03:40:03;96613.09;;;4.52;100.00
57628;BME280;43451;49.060;10.616;2023-12-20T03:42:28;96614.81;;;4.41;100.00
57628;BME280;43451;49.060;10.616;2023-12-20T03:44:54;96614.94;;;4.48;100.00
57628;BME280;43451;49.060;10.616;2023-12-20T03:47:20;96604.19;;;4.48;100.00
57628;BME280;43451;49.060;10.616;2023-12-20T03:49:45;96612.25;;;4.48;100.00
57628;BME280;43451;49.060;10.616;2023-12-20T03:52:10;96612.00;;;4.37;100.00
57628;BME280;43451;49.060;10.616;2023-12-20T03:54:36;96614.38;;;4.39;100.00
57628;BME280;43451;49.060;10.616;2023-12-20T03:57:01;96615.69;;;4.29;100.00
57628;BME280;43451;49.060;10.616;2023-12-20T03:59:27;96625.31;;;4.50;100.00
57628;BME280;43451;49.060;10.616;2023-12-20T04:01:52;96611.16;;;4.53;100.00
57628;BME280;43451;49.060;10.616;2023-12-20T04:04:18;96632.03;;;4.40;100.00
57628;BME280;43451;49.060;10.616;2023-12-20T04:06:44;96620.22;;;4.25;100.00
57628;BME280;43451;49.060;10.616;2023-12-20T04:09:10;96621.16;;;4.33;100.00
57628;BME280;43451;49.060;10.616;2023-12-20T04:11:36;96614.22;;;4.32;100.00
57628;BME280;43451;49.060;10.616;2023-12-20T04:14:02;96618.50;;;4.17;100.00
57628;BME280;43451;49.060;10.616;2023-12-20T04:16:27;96629.63;;;4.15;100.00
57628;BME280;43451;49.060;10.616;2023-12-20T04:18:53;96623.53;;;4.18;100.00
57628;BME280;43451;49.060;10.616;2023-12-20T04:21:18;96628.31;;;4.25;100.00
57628;BME280;43451;49.060;10.616;2023-12-20T04:23:44;96627.59;;;4.28;100.00
57628;BME280;43451;49.060;10.616;2023-12-20T04:26:10;96624.41;;;4.23;100.00
57628;BME280;43451;49.060;10.616;2023-12-20T04:28:35;96626.06;;;4.11;100.00
57628;BME280;43451;49.060;10.616;2023-12-20T04:31:01;96634.56;;;4.13;100.00
57628;BME280;43451;49.060;10.616;2023-12-20T04:36:01;96625.88;;;4.20;100.00
57628;BME280;43451;49.060;10.616;2023-12-20T04:38:26;96638.22;;;4.05;100.00
57628;BME280;43451;49.060;10.616;2023-12-20T04:40:52;96632.22;;;4.12;100.00
57628;BME280;43451;49.060;10.616;2023-12-20T04:43:17;96621.72;;;4.23;100.00
57628;BME280;43451;49.060;10.616;2023-12-20T04:45:43;96628.91;;;4.18;100.00
57628;BME280;43451;49.060;10.616;2023-12-20T04:48:08;96630.06;;;4.37;100.00
57628;BME280;43451;49.060;10.616;2023-12-20T04:50:34;96636.06;;;4.30;100.00
57628;BME280;43451;49.060;10.616;2023-12-20T04:53:00;96627.88;;;4.23;100.00
57628;BME280;43451;49.060;10.616;2023-12-20T04:55:25;96627.94;;;4.27;100.00
57628;BME280;43451;49.060;10.616;2023-12-20T04:57:51;96633.25;;;4.23;100.00
57628;BME280;43451;49.060;10.616;2023-12-20T05:00:16;96633.78;;;4.13;100.00
57628;BME280;43451;49.060;10.616;2023-12-20T05:02:42;96650.13;;;4.04;100.00
57628;BME280;43451;49.060;10.616;2023-12-20T05:05:08;96661.41;;;3.94;100.00
57628;BME280;43451;49.060;10.616;2023-12-20T05:07:33;96669.88;;;3.96;100.00
57628;BME280;43451;49.060;10.616;2023-12-20T05:09:59;96675.25;;;3.96;100.00
57628;BME280;43451;49.060;10.616;2023-12-20T05:12:24;96683.59;;;3.91;100.00
57628;BME280;43451;49.060;10.616;2023-12-20T05:14:52;96679.78;;;3.92;100.00
57628;BME280;43451;49.060;10.616;2023-12-20T05:17:17;96674.41;;;3.92;100.00
57628;BME280;43451;49.060;10.616;2023-12-20T05:19:43;96683.59;;;3.91;100.00
57628;BME280;43451;49.060;10.616;2023-12-20T05:22:09;96684.38;;;3.91;100.00
57628;BME280;43451;49.060;10.616;2023-12-20T05:24:35;96679.78;;;3.92;100.00
57628;BME280;43451;49.060;10.616;2023-12-20T05:27:00;96667.47;;;3.91;100.00
57628;BME280;43451;49.060;10.616;2023-12-20T05:29:25;96677.34;;;3.87;100.00
57628;BME280;43451;49.060;10.616;2023-12-20T05:31:51;96689.59;;;3.84;100.00
57628;BME280;43451;49.060;10.616;2023-12-20T05:34:16;96686.81;;;3.81;100.00
57628;BME280;43451;49.060;10.616;2023-12-20T05:36:42;96691.50;;;3.68;100.00
57628;BME280;43451;49.060;10.616;2023-12-20T05:39:07;96683.69;;;3.79;100.00
57628;BME280;43451;49.060;10.616;2023-12-20T05:41:33;96687.53;;;3.78;100.00
57628;BME280;43451;49.060;10.616;2023-12-20T05:43:59;96693.91;;;3.89;100.00
57628;BME280;43451;49.060;10.616;2023-12-20T05:46:25;96708.31;;;3.81;100.00
57628;BME280;43451;49.060;10.616;2023-12-20T05:48:50;96704.13;;;3.67;100.00
57628;BME280;43451;49.060;10.616;2023-12-20T05:51:17;96710.19;;;3.64;100.00
57628;BME280;43451;49.060;10.616;2023-12-20T05:53:43;96720.25;;;3.67;100.00
57628;BME280;43451;49.060;10.616;2023-12-20T05:56:09;96719.56;;;3.70;100.00
57628;BME280;43451;49.060;10.616;2023-12-20T05:58:35;96713.00;;;3.84;100.00
57628;BME280;43451;49.060;10.616;2023-12-20T06:01:03;96719.56;;;3.70;100.00
57628;BME280;43451;49.060;10.616;2023-12-20T06:03:29;96723.84;;;3.71;100.00
57628;BME280;43451;49.060;10.616;2023-12-20T06:05:55;96718.63;;;3.79;100.00
57628;BME280;43451;49.060;10.616;2023-12-20T06:08:20;96729.63;;;3.73;100.00
57628;BME280;43451;49.060;10.616;2023-12-20T06:10:46;96728.31;;;3.83;100.00
57628;BME280;43451;49.060;10.616;2023-12-20T06:13:11;96729.13;;;3.84;100.00
57628;BME280;43451;49.060;10.616;2023-12-20T06:15:38;96733.78;;;3.87;100.00
57628;BME280;43451;49.060;10.616;2023-12-20T06:18:05;96728.41;;;3.87;100.00
57628;BME280;43451;49.060;10.616;2023-12-20T06:20:31;96733.19;;;3.93;100.00
57628;BME280;43451;49.060;10.616;2023-12-20T06:22:56;96722.25;;;3.86;100.00
57628;BME280;43451;49.060;10.616;2023-12-20T06:25:22;96730.31;;;3.86;100.00
57628;BME280;43451;49.060;10.616;2023-12-20T06:27:47;96742.03;;;3.78;100.00
57628;BME280;43451;49.060;10.616;2023-12-20T06:30:13;96745.66;;;3.86;100.00
57628;BME280;43451;49.060;10.616;2023-12-20T06:32:39;96738.81;;;3.72;100.00
57628;BME280;43451;49.060;10.616;2023-12-20T06:35:05;96743.41;;;3.72;100.00
57628;BME280;43451;49.060;10.616;2023-12-20T06:37:30;96744.19;;;3.72;100.00
57628;BME280;43451;49.060;10.616;2023-12-20T06:39:56;96739.25;;;3.75;100.00
57628;BME280;43451;49.060;10.616;2023-12-20T06:42:22;96747.31;;;3.75;100.00
57628;BME280;43451;49.060;10.616;2023-12-20T06:44:48;96754.75;;;3.65;100.00
57628;BME280;43451;49.060;10.616;2023-12-20T06:47:13;96759.38;;;3.81;100.00
57628;BME280;43451;49.060;10.616;2023-12-20T06:49:40;96764.81;;;3.68;100.00
57628;BME280;43451;49.060;10.616;2023-12-20T06:52:05;96761.44;;;3.71;100.00
57628;BME280;43451;49.060;10.616;2023-12-20T06:54:31;96758.75;;;3.71;100.00
57628;BME280;43451;49.060;10.616;2023-12-20T06:56:59;96767.91;;;3.70;100.00
57628;BME280;43451;49.060;10.616;2023-12-20T06:59:25;96770.00;;;3.77;100.00
57628;BME280;43451;49.060;10.616;2023-12-20T07:01:51;96776.34;;;3.85;100.00
57628;BME280;43451;49.060;10.616;2023-12-20T07:04:17;96777.72;;;3.79;100.00
57628;BME280;43451;49.060;10.616;2023-12-20T07:06:45;96780.41;;;3.79;100.00
57628;BME280;43451;49.060;10.616;2023-12-20T07:09:13;96783.44;;;3.77;100.00
57628;BME280;43451;49.060;10.616;2023-12-20T07:11:39;96779.28;;;3.64;100.00
57628;BME280;43451;49.060;10.616;2023-12-20T07:14:04;96789.22;;;3.63;100.00
57628;BME280;43451;49.060;10.616;2023-12-20T07:16:30;96799.97;;;3.63;100.00
57628;BME280;43451;49.060;10.616;2023-12-20T07:18:55;96805.28;;;3.76;100.00
57628;BME280;43451;49.060;10.616;2023-12-20T07:21:22;96808.75;;;3.76;100.00
57628;BME280;43451;49.060;10.616;2023-12-20T07:23:48;96810.06;;;3.82;100.00
57628;BME280;43451;49.060;10.616;2023-12-20T07:26:14;96820.91;;;3.86;100.00
57628;BME280;43451;49.060;10.616;2023-12-20T07:28:40;96820.22;;;3.89;100.00
57628;BME280;43451;49.060;10.616;2023-12-20T07:31:06;96811.22;;;3.97;100.00
57628;BME280;43451;49.060;10.616;2023-12-20T07:33:31;96815.91;;;4.00;100.00
57628;BME280;43451;49.060;10.616;2023-12-20T07:35:57;96817.81;;;4.00;100.00
57628;BME280;43451;49.060;10.616;2023-12-20T07:38:23;96826.66;;;4.16;100.00
57628;BME280;43451;49.060;10.616;2023-12-20T07:40:49;96828.06;;;4.10;100.00
57628;BME280;43451;49.060;10.616;2023-12-20T07:43:14;96823.63;;;4.17;100.00
57628;BME280;43451;49.060;10.616;2023-12-20T07:45:40;96824.06;;;4.19;100.00
57628;BME280;43451;49.060;10.616;2023-12-20T07:48:06;96831.34;;;4.19;100.00
57628;BME280;43451;49.060;10.616;2023-12-20T07:50:32;96829.00;;;4.17;100.00
57628;BME280;43451;49.060;10.616;2023-12-20T07:52:58;96830.03;;;4.13;100.00
57628;BME280;43451;49.060;10.616;2023-12-20T07:55:26;96831.34;;;4.19;100.00
57628;BME280;43451;49.060;10.616;2023-12-20T07:57:52;96835.06;;;4.14;100.00
57628;BME280;43451;49.060;10.616;2023-12-20T08:00:18;96833.16;;;4.15;100.00
57628;BME280;43451;49.060;10.616;2023-12-20T08:02:44;96833.69;;;4.21;100.00
57628;BME280;43451;49.060;10.616;2023-12-20T08:05:10;96831.28;;;4.15;100.00
57628;BME280;43451;49.060;10.616;2023-12-20T08:07:36;96841.31;;;4.18;100.00
57628;BME280;43451;49.060;10.616;2023-12-20T08:10:01;96833.84;;;4.28;100.00
57628;BME280;43451;49.060;10.616;2023-12-20T08:12:27;96838.13;;;4.29;100.00
57628;BME280;43451;49.060;10.616;2023-12-20T08:14:53;96847.91;;;4.37;100.00
57628;BME280;43451;49.060;10.616;2023-12-20T08:17:19;96857.63;;;4.26;100.00
57628;BME280;43451;49.060;10.616;2023-12-20T08:19:45;96851.66;;;4.32;100.00
57628;BME280;43451;49.060;10.616;2023-12-20T08:22:10;96844.59;;;4.28;100.00
57628;BME280;43451;49.060;10.616;2023-12-20T08:24:36;96847.75;;;4.30;100.00
57628;BME280;43451;49.060;10.616;2023-12-20T08:27:02;96839.22;;;4.28;100.00
57628;BME280;43451;49.060;10.616;2023-12-20T08:29:27;96839.91;;;4.40;100.00
57628;BME280;43451;49.060;10.616;2023-12-20T08:31:55;96859.63;;;4.45;100.00
57628;BME280;43451;49.060;10.616;2023-12-20T08:34:20;96855.56;;;4.51;100.00
57628;BME280;43451;49.060;10.616;2023-12-20T08:36:46;96858.31;;;4.54;100.00
57628;BME280;43451;49.060;10.616;2023-12-20T08:39:11;96871.09;;;4.57;100.00
57628;BME280;43451;49.060;10.616;2023-12-20T08:41:37;96867.16;;;4.71;100.00
57628;BME280;43451;49.060;10.616;2023-12-20T08:44:02;96853.63;;;4.51;100.00
57628;BME280;43451;49.060;10.616;2023-12-20T08:46:28;96855.88;;;4.49;100.00
57628;BME280;43451;49.060;10.616;2023-12-20T08:48:53;96833.34;;;4.38;100.00
57628;BME280;43451;49.060;10.616;2023-12-20T08:51:19;96851.66;;;4.32;100.00
57628;BME280;43451;49.060;10.616;2023-12-20T08:53:46;96849.91;;;4.24;100.00
57628;BME280;43451;49.060;10.616;2023-12-20T08:56:13;96855.97;;;4.21;100.00
57628;BME280;43451;49.060;10.616;2023-12-20T08:58:38;96843.31;;;4.37;100.00
57628;BME280;43451;49.060;10.616;2023-12-20T09:01:04;96845.41;;;4.28;100.00
57628;BME280;43451;49.060;10.616;2023-12-20T09:03:29;96841.66;;;4.33;100.00
57628;BME280;43451;49.060;10.616;2023-12-20T09:05:55;96839.75;;;4.49;100.00
57628;BME280;43451;49.060;10.616;2023-12-20T09:08:20;96857.72;;;4.45;100.00
57628;BME280;43451;49.060;10.616;2023-12-20T09:10:45;96858.13;;;4.47;100.00
57628;BME280;43451;49.060;10.616;2023-12-20T09:13:11;96852.50;;;4.36;100.00
57628;BME280;43451;49.060;10.616;2023-12-20T09:15:37;96843.75;;;4.24;100.00
57628;BME280;43451;49.060;10.616;2023-12-20T09:18:05;96869.31;;;4.17;100.00
57628;BME280;43451;49.060;10.616;2023-12-20T09:20:31;96853.78;;;4.11;100.00
57628;BME280;43451;49.060;10.616;2023-12-20T09:22:56;96852.16;;;4.06;100.00
57628;BME280;43451;49.060;10.616;2023-12-20T09:25:22;96858.56;;;4.02;100.00
57628;BME280;43451;49.060;10.616;2023-12-20T09:27:48;96860.69;;;3.96;100.00
57628;BME280;43451;49.060;10.616;2023-12-20T09:30:14;96849.47;;;4.06;100.00
57628;BME280;43451;49.060;10.616;2023-12-20T09:32:39;96840.88;;;4.01;100.00
57628;BME280;43451;49.060;10.616;2023-12-20T09:35:05;96848.50;;;4.14;100.00
57628;BME280;43451;49.060;10.616;2023-12-20T09:37:31;96853.19;;;4.02;100.00
57628;BME280;43451;49.060;10.616;2023-12-20T09:39:57;96840.28;;;4.07;100.00
57628;BME280;43451;49.060;10.616;2023-12-20T09:42:46;96846.59;;;4.15;100.00
57628;BME280;43451;49.060;10.616;2023-12-20T09:45:15;96839.75;;;4.17;100.00
57628;BME280;43451;49.060;10.616;2023-12-20T09:47:43;96842.50;;;4.05;100.00
57628;BME280;43451;49.060;10.616;2023-12-20T09:50:09;96847.19;;;4.08;100.00
57628;BME280;43451;49.060;10.616;2023-12-20T09:52:36;96848.34;;;4.07;100.00
57628;BME280;43451;49.060;10.616;2023-12-20T09:55:04;96861.59;;;4.00;100.00
57628;BME280;43451;49.060;10.616;2023-12-20T09:57:32;96858.41;;;4.10;100.00
57628;BME280;43451;49.060;10.616;2023-12-20T09:59:57;96853.63;;;4.19;100.00
57628;BME280;43451;49.060;10.616;2023-12-20T10:02:25;96856.16;;;4.28;100.00
57628;BME280;43451;49.060;10.616;2023-12-20T10:04:54;96870.03;;;4.46;100.00
57628;BME280;43451;49.060;10.616;2023-12-20T10:07:19;96867.50;;;4.53;100.00
57628;BME280;43451;49.060;10.616;2023-12-20T10:09:46;96846.94;;;4.61;100.00
57628;BME280;43451;49.060;10.616;2023-12-20T10:12:12;96853.97;;;4.65;100.00
57628;BME280;43451;49.060;10.616;2023-12-20T10:14:39;96854.56;;;4.59;100.00
57628;BME280;43451;49.060;10.616;2023-12-20T10:17:05;96852.31;;;4.61;100.00
57628;BME280;43451;49.060;10.616;2023-12-20T10:19:32;96843.75;;;4.55;100.00
57628;BME280;43451;49.060;10.616;2023-12-20T10:21:59;96835.84;;;4.31;100.00
57628;BME280;43451;49.060;10.616;2023-12-20T10:24:24;96848.50;;;4.30;100.00
57628;BME280;43451;49.060;10.616;2023-12-20T10:27:07;96851.13;;;4.27;100.00
57628;BME280;43451;49.060;10.616;2023-12-20T10:29:37;96854.16;;;4.41;100.00
57628;BME280;43451;49.060;10.616;2023-12-20T10:32:23;96849.81;;;4.52;100.00
57628;BME280;43451;49.060;10.616;2023-12-20T10:34:50;96849.81;;;4.52;100.00
57628;BME280;43451;49.060;10.616;2023-12-20T10:37:16;96845.16;;;4.84;100.00
57628;BME280;43451;49.060;10.616;2023-12-20T10:39:52;96839.22;;;4.95;100.00
57628;BME280;43451;49.060;10.616;2023-12-20T10:42:21;96838.06;;;5.11;100.00
57628;BME280;43451;49.060;10.616;2023-12-20T10:44:48;96833.97;;;5.37;100.00
57628;BME280;43451;49.060;10.616;2023-12-20T10:47:15;96819.22;;;5.31;100.00
57628;BME280;43451;49.060;10.616;2023-12-20T10:49:41;96820.28;;;5.26;100.00
57628;BME280;43451;49.060;10.616;2023-12-20T10:52:08;96814.56;;;5.28;100.00
57628;BME280;43451;49.060;10.616;2023-12-20T10:54:34;96814.81;;;5.23;100.00
57628;BME280;43451;49.060;10.616;2023-12-20T10:57:00;96825.13;;;5.17;100.00
57628;BME280;43451;49.060;10.616;2023-12-20T10:59:33;96812.69;;;5.12;100.00
57628;BME280;43451;49.060;10.616;2023-12-20T11:01:59;96805.97;;;5.03;100.00
57628;BME280;43451;49.060;10.616;2023-12-20T11:11:07;96809.22;;;4.93;100.00
57628;BME280;43451;49.060;10.616;2023-12-20T11:13:54;96799.88;;;5.06;100.00
57628;BME280;43451;49.060;10.616;2023-12-20T11:16:20;96810.06;;;4.97;100.00
57628;BME280;43451;49.060;10.616;2023-12-20T11:18:46;96808.69;;;4.87;100.00
57628;BME280;43451;49.060;10.616;2023-12-20T11:21:12;96802.81;;;5.01;100.00
57628;BME280;43451;49.060;10.616;2023-12-20T11:23:42;96808.44;;;4.92;100.00
57628;BME280;43451;49.060;10.616;2023-12-20T11:26:07;96804.75;;;5.00;100.00
57628;BME280;43451;49.060;10.616;2023-12-20T11:28:32;96793.97;;;5.00;100.00
57628;BME280;43451;49.060;10.616;2023-12-20T11:31:02;96792.28;;;5.11;100.00
57628;BME280;43451;49.060;10.616;2023-12-20T11:33:35;96784.72;;;5.17;100.00
57628;BME280;43451;49.060;10.616;2023-12-20T11:36:01;96782.16;;;5.24;100.00
57628;BME280;43451;49.060;10.616;2023-12-20T11:38:36;96781.22;;;5.17;100.00
57628;BME280;43451;49.060;10.616;2023-12-20T11:41:06;96774.44;;;5.23;100.00
57628;BME280;43451;49.060;10.616;2023-12-20T11:43:38;96773.16;;;5.36;100.00
57628;BME280;43451;49.060;10.616;2023-12-20T11:46:08;96775.28;;;5.27;100.00
57628;BME280;43451;49.060;10.616;2023-12-20T11:48:36;96766.78;;;5.25;100.00
57628;BME280;43451;49.060;10.616;2023-12-20T11:51:02;96768.69;;;5.05;100.00
57628;BME280;43451;49.060;10.616;2023-12-20T11:53:29;96775.44;;;4.95;100.00
57628;BME280;43451;49.060;10.616;2023-12-20T11:55:56;96773.78;;;4.91;100.00
57628;BME280;43451;49.060;10.616;2023-12-20T11:58:21;96780.63;;;4.88;100.00
57628;BME280;43451;49.060;10.616;2023-12-20T12:00:49;96779.88;;;4.87;100.00
57628;BME280;43451;49.060;10.616;2023-12-20T12:03:15;96771.94;;;4.95;100.00
57628;BME280;43451;49.060;10.616;2023-12-20T12:05:41;96769.25;;;4.95;100.00
57628;BME280;43451;49.060;10.616;2023-12-20T12:08:06;96770.75;;;4.92;100.00
57628;BME280;43451;49.060;10.616;2023-12-20T12:10:33;96771.59;;;4.96;100.00
57628;BME280;43451;49.060;10.616;2023-12-20T12:12:59;96776.84;;;4.89;100.00
57628;BME280;43451;49.060;10.616;2023-12-20T12:15:25;96768.84;;;4.93;100.00
57628;BME280;43451;49.060;10.616;2023-12-20T12:17:57;96770.81;;;4.96;100.00
57628;BME280;43451;49.060;10.616;2023-12-20T12:20:23;96772.91;;;4.67;100.00
57628;BME280;43451;49.060;10.616;2023-12-20T12:23:04;96763.88;;;4.59;100.00
57628;BME280;43451;49.060;10.616;2023-12-20T12:25:32;96771.25;;;4.62;100.00
57628;BME280;43451;49.060;10.616;2023-12-20T12:27:58;96771.19;;;4.59;100.00
57628;BME280;43451;49.060;10.616;2023-12-20T12:30:24;96768.03;;;4.73;100.00
57628;BME280;43451;49.060;10.616;2023-12-20T12:32:53;96774.97;;;4.74;100.00
57628;BME280;43451;49.060;10.616;2023-12-20T12:35:20;96768.88;;;4.77;100.00
57628;BME280;43451;49.060;10.616;2023-12-20T12:37:45;96773.47;;;4.41;100.00
57628;BME280;43451;49.060;10.616;2023-12-20T12:40:13;96768.78;;;4.54;100.00
57628;BME280;43451;49.060;10.616;2023-12-20T12:42:39;96776.16;;;4.41;100.00
57628;BME280;43451;49.060;10.616;2023-12-20T12:45:06;96763.84;;;4.40;100.00
57628;BME280;43451;49.060;10.616;2023-12-20T12:47:32;96769.13;;;4.36;100.00
57628;BME280;43451;49.060;10.616;2023-12-20T12:49:58;96773.47;;;4.41;100.00
57628;BME280;43451;49.060;10.616;2023-12-20T12:52:23;96771.03;;;4.36;100.00
57628;BME280;43451;49.060;10.616;2023-12-20T12:54:49;96767.06;;;4.30;100.00